Molly Pitcher — WDI3781 — position and weather

sailwx.info

Track history (hours):
 
Tides and Currents Weather Stations Pressure Air Temp Water Temp Dewpoint Dewpoint Depression Visibility Wind Speed Wind Dir Waves Ship Positions

Molly Pitcher

Owner: Port Imperial Ferry Corp, Weehawken, NJ. More information available from US FCC via Universal Licensing System and Coast Guard Vessel Documentation Center.

Last reported at 2018-Apr-20 22:06 UTC. Time now 2018-Apr-22 18:19 UTC.
Position N 40°27' W 074°05'.

Length 33 m; draft 2 m.

Type: Passenger vessel. MMSI: 367691840.

Date/timePositionNaut miles runAvg speedWind from/ knotsBaromVisibWave heightAir tempDewpointWater temp
2018-Apr-20 22:06N 40°27' W 074°05'327.4
2018-Apr-20 22:00N 40°29' W 074°03'1326.8
2018-Apr-20 21:30N 40°42' W 074°00'4 8.7
2018-Apr-20 21:01N 40°39' W 074°03'1320.4
2018-Apr-20 20:24N 40°26' W 074°05'1128.3
2018-Apr-20 20:00N 40°37' W 074°03'612.2
2018-Apr-20 19:31N 40°43' W 074°01'3 5.4
2018-Apr-20 19:00N 40°46' W 074°00'1 1.5
2018-Apr-20 18:30N 40°46' W 074°01'0 0.0
2018-Apr-20 18:00N 40°46' W 074°01'0 0.0
2018-Apr-20 17:30N 40°46' W 074°01'0 0.0
2018-Apr-20 17:00N 40°46' W 074°01'0 0.0
2018-Apr-20 16:30N 40°46' W 074°01'0 0.0
2018-Apr-20 16:00N 40°46' W 074°01'0 0.0
2018-Apr-20 15:30N 40°46' W 074°01'0 0.0
2018-Apr-20 15:00N 40°46' W 074°01'0 0.0
2018-Apr-20 14:30N 40°46' W 074°01'0 0.1
2018-Apr-20 14:00N 40°46' W 074°01'0 0.0
2018-Apr-20 13:30N 40°46' W 074°01'2 5.0
2018-Apr-20 13:01N 40°44' W 074°01'613.0
2018-Apr-20 12:31N 40°37' W 074°03'1117.2
2018-Apr-20 11:51N 40°26' W 074°05'1028.6
2018-Apr-20 11:30N 40°36' W 074°03'612.5
2018-Apr-20 11:01N 40°42' W 074°00'13 1.0
2018-Apr-19 22:00N 40°29' W 074°04'1326.8
2018-Apr-19 21:30N 40°42' W 074°00'4 8.3
2018-Apr-19 21:00N 40°39' W 074°03'1217.9
2018-Apr-19 20:20N 40°27' W 074°05'929.4
2018-Apr-19 20:01N 40°36' W 074°03'714.6
2018-Apr-19 19:30N 40°43' W 074°01'3 5.3
2018-Apr-19 19:00N 40°46' W 074°00'0 0.0
2018-Apr-19 13:18N 40°46' W 074°01'310.9
2018-Apr-19 13:01N 40°43' W 074°02'611.7
2018-Apr-19 12:31N 40°37' W 074°03'1117.2
2018-Apr-19 11:52N 40°26' W 074°05'1027.3
2018-Apr-19 11:31N 40°36' W 074°03'713.3
2018-Apr-19 11:01N 40°42' W 074°00'12 0.9
2018-Apr-18 21:59N 40°30' W 074°04'1226.0
2018-Apr-18 21:30N 40°42' W 074°00'3 6.7
2018-Apr-18 21:01N 40°39' W 074°03'1319.2
2018-Apr-18 20:20N 40°27' W 074°05'929.2
2018-Apr-18 20:01N 40°36' W 074°03'714.5
2018-Apr-18 19:30N 40°43' W 074°01'3 5.5
2018-Apr-18 19:01N 40°46' W 074°00'1 0.1
2018-Apr-18 13:18N 40°46' W 074°01'311.7
2018-Apr-18 13:00N 40°43' W 074°02'611.6
2018-Apr-18 12:31N 40°37' W 074°03'1117.7
2018-Apr-18 11:53N 40°26' W 074°05'1027.2
2018-Apr-18 11:30N 40°36' W 074°03'612.1
2018-Apr-18 11:01N 40°42' W 074°00'13 1.0
2018-Apr-17 22:01N 40°30' W 074°04'428.0
2018-Apr-17 21:52N 40°34' W 074°04'924.5
2018-Apr-17 21:31N 40°42' W 074°00'4 8.1
2018-Apr-17 20:59N 40°39' W 074°03'1218.9
2018-Apr-17 20:20N 40°27' W 074°05'1029.3
2018-Apr-17 19:59N 40°37' W 074°03'613.3
2018-Apr-17 19:30N 40°43' W 074°01'3 5.4
2018-Apr-17 18:59N 40°46' W 074°01'0 0.0
2018-Apr-17 13:14N 40°46' W 074°00'313.3
2018-Apr-17 13:00N 40°43' W 074°02'611.7
2018-Apr-17 12:31N 40°37' W 074°03'1015.2
2018-Apr-17 11:50N 40°27' W 074°05'928.1
2018-Apr-17 11:31N 40°36' W 074°03'613.0
2018-Apr-17 11:00N 40°42' W 074°00'16 1.3
2018-Apr-16 22:10N 40°26' W 074°05'527.5
2018-Apr-16 21:58N 40°31' W 074°04'1124.0
2018-Apr-16 21:30N 40°42' W 074°00'3 6.3
2018-Apr-16 21:01N 40°40' W 074°03'1421.9
2018-Apr-16 20:23N 40°26' W 074°05'1027.8
2018-Apr-16 20:01N 40°36' W 074°03'713.5
2018-Apr-16 19:31N 40°43' W 074°01'3 5.4
2018-Apr-16 19:00N 40°46' W 074°00'1 0.1
2018-Apr-16 13:34N 40°46' W 074°01'0 0.1
2018-Apr-16 13:30N 40°46' W 074°01'4 8.7
2018-Apr-16 13:00N 40°42' W 074°00'1520.2
2018-Apr-16 12:16N 40°28' W 074°05'1 4.1
2018-Apr-16 11:59N 40°26' W 074°05'1224.7
2018-Apr-16 11:31N 40°38' W 074°03'3 5.2
2018-Apr-16 11:01N 40°40' W 074°01'  
2018-Apr-13 22:05N 40°27' W 074°04'228.1
2018-Apr-13 22:01N 40°30' W 074°04'1325.5
2018-Apr-13 21:30N 40°42' W 074°00'2 4.6
2018-Apr-13 21:01N 40°40' W 074°01'1422.4
2018-Apr-13 20:22N 40°26' W 074°05'1027.8
2018-Apr-13 20:00N 40°36' W 074°03'713.5
2018-Apr-13 19:30N 40°43' W 074°01'3 5.4
2018-Apr-13 18:59N 40°46' W 074°00'0 0.0
2018-Apr-13 14:48N 40°46' W 074°00'310.2
2018-Apr-13 14:30N 40°43' W 074°02'713.8
2018-Apr-13 14:00N 40°36' W 074°03'711.3
2018-Apr-13 13:24N 40°29' W 074°04'1128.1
2018-Apr-13 13:01N 40°40' W 074°03'2 4.4
2018-Apr-13 12:30N 40°38' W 074°03'1219.4
2018-Apr-13 11:53N 40°26' W 074°05'1027.3
2018-Apr-13 11:31N 40°36' W 074°03'713.1
2018-Apr-13 11:01N 40°42' W 074°00'15 1.1
2018-Apr-12 22:05N 40°28' W 074°04'227.9
2018-Apr-12 22:01N 40°30' W 074°04'1325.7
2018-Apr-12 21:30N 40°42' W 074°00'3 5.2
2018-Apr-12 21:01N 40°40' W 074°01'1422.7
2018-Apr-12 20:24N 40°26' W 074°05'1026.6
2018-Apr-12 20:01N 40°36' W 074°03'713.8
2018-Apr-12 19:30N 40°43' W 074°01'3 5.3
2018-Apr-12 19:00N 40°46' W 074°00'0 0.0
2018-Apr-12 13:23N 40°46' W 074°00'3 8.0
2018-Apr-12 13:01N 40°43' W 074°01'815.4
2018-Apr-12 12:30N 40°35' W 074°03'917.1
2018-Apr-12 11:58N 40°26' W 074°05'1227.0
2018-Apr-12 11:31N 40°38' W 074°03'4 7.5
2018-Apr-12 11:01N 40°41' W 074°01'13 1.0
2018-Apr-11 22:02N 40°29' W 074°04'127.8
2018-Apr-11 22:00N 40°30' W 074°04'1325.5
2018-Apr-11 21:30N 40°42' W 074°00'3 5.2
2018-Apr-11 21:01N 40°40' W 074°03'1421.6
2018-Apr-11 20:22N 40°27' W 074°05'1028.0
2018-Apr-11 20:00N 40°37' W 074°03'713.2
2018-Apr-11 19:31N 40°43' W 074°01'3 5.6
2018-Apr-11 19:00N 40°46' W 074°00'1 0.1
2018-Apr-11 13:26N 40°46' W 074°01'3 8.1
2018-Apr-11 13:00N 40°43' W 074°01'611.9
2018-Apr-11 12:30N 40°37' W 074°03'1116.5
2018-Apr-11 11:50N 40°26' W 074°05'927.9
2018-Apr-11 11:31N 40°35' W 074°03'714.9
2018-Apr-11 11:01N 40°42' W 074°00'16 1.2
2018-Apr-10 22:09N 40°27' W 074°05'  
Track history (hours):
 
Tides and Currents Weather Stations Pressure Air Temp Water Temp Dewpoint Dewpoint Depression Visibility Wind Speed Wind Dir Waves Ship Positions

Molly Pitcher

Owner: Port Imperial Ferry Corp, Weehawken, NJ. More information available from US FCC via Universal Licensing System and Coast Guard Vessel Documentation Center.

Last reported at 2018-Apr-20 22:06 UTC. Time now 2018-Apr-22 18:19 UTC.
Position N 40°27' W 074°05'.

Length 33 m; draft 2 m.

Type: Passenger vessel. MMSI: 367691840.

Date/timePositionNaut miles runAvg speedWind from/ knotsBaromVisibWave heightAir tempDewpointWater temp
2018-Apr-20 22:06N 40°27' W 074°05'327.4
2018-Apr-20 22:00N 40°29' W 074°03'1326.8
2018-Apr-20 21:30N 40°42' W 074°00'4 8.7
2018-Apr-20 21:01N 40°39' W 074°03'1320.4
2018-Apr-20 20:24N 40°26' W 074°05'1128.3
2018-Apr-20 20:00N 40°37' W 074°03'612.2
2018-Apr-20 19:31N 40°43' W 074°01'3 5.4
2018-Apr-20 19:00N 40°46' W 074°00'1 1.5
2018-Apr-20 18:30N 40°46' W 074°01'0 0.0
2018-Apr-20 18:00N 40°46' W 074°01'0 0.0
2018-Apr-20 17:30N 40°46' W 074°01'0 0.0
2018-Apr-20 17:00N 40°46' W 074°01'0 0.0
2018-Apr-20 16:30N 40°46' W 074°01'0 0.0
2018-Apr-20 16:00N 40°46' W 074°01'0 0.0
2018-Apr-20 15:30N 40°46' W 074°01'0 0.0
2018-Apr-20 15:00N 40°46' W 074°01'0 0.0
2018-Apr-20 14:30N 40°46' W 074°01'0 0.1
2018-Apr-20 14:00N 40°46' W 074°01'0 0.0
2018-Apr-20 13:30N 40°46' W 074°01'2 5.0
2018-Apr-20 13:01N 40°44' W 074°01'613.0
2018-Apr-20 12:31N 40°37' W 074°03'1117.2
2018-Apr-20 11:51N 40°26' W 074°05'1028.6
2018-Apr-20 11:30N 40°36' W 074°03'612.5
2018-Apr-20 11:01N 40°42' W 074°00'13 1.0
2018-Apr-19 22:00N 40°29' W 074°04'1326.8
2018-Apr-19 21:30N 40°42' W 074°00'4 8.3
2018-Apr-19 21:00N 40°39' W 074°03'1217.9
2018-Apr-19 20:20N 40°27' W 074°05'929.4
2018-Apr-19 20:01N 40°36' W 074°03'714.6
2018-Apr-19 19:30N 40°43' W 074°01'3 5.3
2018-Apr-19 19:00N 40°46' W 074°00'0 0.0
2018-Apr-19 13:18N 40°46' W 074°01'310.9
2018-Apr-19 13:01N 40°43' W 074°02'611.7
2018-Apr-19 12:31N 40°37' W 074°03'1117.2
2018-Apr-19 11:52N 40°26' W 074°05'1027.3
2018-Apr-19 11:31N 40°36' W 074°03'713.3
2018-Apr-19 11:01N 40°42' W 074°00'12 0.9
2018-Apr-18 21:59N 40°30' W 074°04'1226.0
2018-Apr-18 21:30N 40°42' W 074°00'3 6.7
2018-Apr-18 21:01N 40°39' W 074°03'1319.2
2018-Apr-18 20:20N 40°27' W 074°05'929.2
2018-Apr-18 20:01N 40°36' W 074°03'714.5
2018-Apr-18 19:30N 40°43' W 074°01'3 5.5
2018-Apr-18 19:01N 40°46' W 074°00'1 0.1
2018-Apr-18 13:18N 40°46' W 074°01'311.7
2018-Apr-18 13:00N 40°43' W 074°02'611.6
2018-Apr-18 12:31N 40°37' W 074°03'1117.7
2018-Apr-18 11:53N 40°26' W 074°05'1027.2
2018-Apr-18 11:30N 40°36' W 074°03'612.1
2018-Apr-18 11:01N 40°42' W 074°00'13 1.0
2018-Apr-17 22:01N 40°30' W 074°04'428.0
2018-Apr-17 21:52N 40°34' W 074°04'924.5
2018-Apr-17 21:31N 40°42' W 074°00'4 8.1
2018-Apr-17 20:59N 40°39' W 074°03'1218.9
2018-Apr-17 20:20N 40°27' W 074°05'1029.3
2018-Apr-17 19:59N 40°37' W 074°03'613.3
2018-Apr-17 19:30N 40°43' W 074°01'3 5.4
2018-Apr-17 18:59N 40°46' W 074°01'0 0.0
2018-Apr-17 13:14N 40°46' W 074°00'313.3
2018-Apr-17 13:00N 40°43' W 074°02'611.7
2018-Apr-17 12:31N 40°37' W 074°03'1015.2
2018-Apr-17 11:50N 40°27' W 074°05'928.1
2018-Apr-17 11:31N 40°36' W 074°03'613.0
2018-Apr-17 11:00N 40°42' W 074°00'16 1.3
2018-Apr-16 22:10N 40°26' W 074°05'527.5
2018-Apr-16 21:58N 40°31' W 074°04'1124.0
2018-Apr-16 21:30N 40°42' W 074°00'3 6.3
2018-Apr-16 21:01N 40°40' W 074°03'1421.9
2018-Apr-16 20:23N 40°26' W 074°05'1027.8
2018-Apr-16 20:01N 40°36' W 074°03'713.5
2018-Apr-16 19:31N 40°43' W 074°01'3 5.4
2018-Apr-16 19:00N 40°46' W 074°00'1 0.1
2018-Apr-16 13:34N 40°46' W 074°01'0 0.1
2018-Apr-16 13:30N 40°46' W 074°01'4 8.7
2018-Apr-16 13:00N 40°42' W 074°00'1520.2
2018-Apr-16 12:16N 40°28' W 074°05'1 4.1
2018-Apr-16 11:59N 40°26' W 074°05'1224.7
2018-Apr-16 11:31N 40°38' W 074°03'3 5.2
2018-Apr-16 11:01N 40°40' W 074°01'  
2018-Apr-13 22:05N 40°27' W 074°04'228.1
2018-Apr-13 22:01N 40°30' W 074°04'1325.5
2018-Apr-13 21:30N 40°42' W 074°00'2 4.6
2018-Apr-13 21:01N 40°40' W 074°01'1422.4
2018-Apr-13 20:22N 40°26' W 074°05'1027.8
2018-Apr-13 20:00N 40°36' W 074°03'713.5
2018-Apr-13 19:30N 40°43' W 074°01'3 5.4
2018-Apr-13 18:59N 40°46' W 074°00'0 0.0
2018-Apr-13 14:48N 40°46' W 074°00'310.2
2018-Apr-13 14:30N 40°43' W 074°02'713.8
2018-Apr-13 14:00N 40°36' W 074°03'711.3
2018-Apr-13 13:24N 40°29' W 074°04'1128.1
2018-Apr-13 13:01N 40°40' W 074°03'2 4.4
2018-Apr-13 12:30N 40°38' W 074°03'1219.4
2018-Apr-13 11:53N 40°26' W 074°05'1027.3
2018-Apr-13 11:31N 40°36' W 074°03'713.1
2018-Apr-13 11:01N 40°42' W 074°00'15 1.1
2018-Apr-12 22:05N 40°28' W 074°04'227.9
2018-Apr-12 22:01N 40°30' W 074°04'1325.7
2018-Apr-12 21:30N 40°42' W 074°00'3 5.2
2018-Apr-12 21:01N 40°40' W 074°01'1422.7
2018-Apr-12 20:24N 40°26' W 074°05'1026.6
2018-Apr-12 20:01N 40°36' W 074°03'713.8
2018-Apr-12 19:30N 40°43' W 074°01'3 5.3
2018-Apr-12 19:00N 40°46' W 074°00'0 0.0
2018-Apr-12 13:23N 40°46' W 074°00'3 8.0
2018-Apr-12 13:01N 40°43' W 074°01'815.4
2018-Apr-12 12:30N 40°35' W 074°03'917.1
2018-Apr-12 11:58N 40°26' W 074°05'1227.0
2018-Apr-12 11:31N 40°38' W 074°03'4 7.5
2018-Apr-12 11:01N 40°41' W 074°01'13 1.0
2018-Apr-11 22:02N 40°29' W 074°04'127.8
2018-Apr-11 22:00N 40°30' W 074°04'1325.5
2018-Apr-11 21:30N 40°42' W 074°00'3 5.2
2018-Apr-11 21:01N 40°40' W 074°03'1421.6
2018-Apr-11 20:22N 40°27' W 074°05'1028.0
2018-Apr-11 20:00N 40°37' W 074°03'713.2
2018-Apr-11 19:31N 40°43' W 074°01'3 5.6
2018-Apr-11 19:00N 40°46' W 074°00'1 0.1
2018-Apr-11 13:26N 40°46' W 074°01'3 8.1
2018-Apr-11 13:00N 40°43' W 074°01'611.9
2018-Apr-11 12:30N 40°37' W 074°03'1116.5
2018-Apr-11 11:50N 40°26' W 074°05'927.9
2018-Apr-11 11:31N 40°35' W 074°03'714.9
2018-Apr-11 11:01N 40°42' W 074°00'16 1.2
2018-Apr-10 22:09N 40°27' W 074°05'  

Dump ship's entire track history